CYMM

Fort McMurray Airport

Fort McMurray, Alberta, Canada
METAR CYMM 100600Z AUTO 10006KT 9SM CLR M08/M10 A2981 RMK SLP121
Observed Flight Rules
Dec-10 @ 06:00 UTC (29 minutes ago) Visual Flight Rules
Wind Visibility Clouds
100° at 6 knots 9 miles
  • Clear skies
Temperatures Readings
Current -8°C / 18°F
Dewpoint -10°C / 14°F
Humidity 86%
Altimeter 29.81" Hg
Pressure 1012.1 hPa
Elevation 369
METAR CYMM 100600Z AUTO 10006KT 9SM CLR M08/M10 A2981 RMK SLP121
Observed Flight Rules
Dec-10 @ 06:00 UTC
(29 minutes ago)
VFR
Wind Visibility
100° at 6 knots 9 miles
Clouds
  • Clear skies
Temperature Dewpoint
-8°C / 18°F -10°C / 14°F
Humidity Altimeter Pressure
86% 29.81" Hg 1012.1 hPa